sensor_id;sensor_type;location;lat;lon;timestamp;temperature;humidity
6696;DHT22;3385;48.928;10.330;2023-04-03T00:00:11;2.20;99.90
6696;DHT22;3385;48.928;10.330;2023-04-03T00:02:37;2.00;99.90
6696;DHT22;3385;48.928;10.330;2023-04-03T00:05:02;2.20;99.90
6696;DHT22;3385;48.928;10.330;2023-04-03T00:07:30;2.10;99.90
6696;DHT22;3385;48.928;10.330;2023-04-03T00:09:55;2.10;99.90
6696;DHT22;3385;48.928;10.330;2023-04-03T00:12:21;2.30;99.90
6696;DHT22;3385;48.928;10.330;2023-04-03T00:14:47;-0.40;99.90
6696;DHT22;3385;48.928;10.330;2023-04-03T00:17:13;2.40;99.90
6696;DHT22;3385;48.928;10.330;2023-04-03T00:19:38;2.20;99.90
6696;DHT22;3385;48.928;10.330;2023-04-03T00:22:04;2.10;99.90
6696;DHT22;3385;48.928;10.330;2023-04-03T00:24:30;2.30;99.90
6696;DHT22;3385;48.928;10.330;2023-04-03T00:26:56;2.40;99.90
6696;DHT22;3385;48.928;10.330;2023-04-03T00:29:21;2.20;99.90
6696;DHT22;3385;48.928;10.330;2023-04-03T00:31:47;2.40;99.90
6696;DHT22;3385;48.928;10.330;2023-04-03T00:34:13;2.20;99.90
6696;DHT22;3385;48.928;10.330;2023-04-03T00:36:39;2.40;99.90
6696;DHT22;3385;48.928;10.330;2023-04-03T00:39:04;2.20;99.90
6696;DHT22;3385;48.928;10.330;2023-04-03T00:41:31;2.20;99.90
6696;DHT22;3385;48.928;10.330;2023-04-03T00:43:57;2.20;99.90
6696;DHT22;3385;48.928;10.330;2023-04-03T00:46:23;2.20;99.90
6696;DHT22;3385;48.928;10.330;2023-04-03T00:48:49;2.30;99.90
6696;DHT22;3385;48.928;10.330;2023-04-03T00:51:21;2.50;99.90
6696;DHT22;3385;48.928;10.330;2023-04-03T00:53:55;2.20;99.90
6696;DHT22;3385;48.928;10.330;2023-04-03T00:56:25;2.20;99.90
6696;DHT22;3385;48.928;10.330;2023-04-03T00:59:04;2.50;99.90
6696;DHT22;3385;48.928;10.330;2023-04-03T01:01:31;2.20;99.90
6696;DHT22;3385;48.928;10.330;2023-04-03T01:04:01;2.20;99.90
6696;DHT22;3385;48.928;10.330;2023-04-03T01:06:30;2.00;99.90
6696;DHT22;3385;48.928;10.330;2023-04-03T01:08:58;2.30;99.90
6696;DHT22;3385;48.928;10.330;2023-04-03T01:11:24;2.30;99.90
6696;DHT22;3385;48.928;10.330;2023-04-03T01:13:50;2.30;99.90
6696;DHT22;3385;48.928;10.330;2023-04-03T01:16:16;2.00;99.90
6696;DHT22;3385;48.928;10.330;2023-04-03T01:18:42;2.40;99.90
6696;DHT22;3385;48.928;10.330;2023-04-03T01:23:55;2.10;99.90
6696;DHT22;3385;48.928;10.330;2023-04-03T01:26:24;2.10;99.90
6696;DHT22;3385;48.928;10.330;2023-04-03T01:28:53;2.10;99.90
6696;DHT22;3385;48.928;10.330;2023-04-03T01:31:38;2.00;99.90
6696;DHT22;3385;48.928;10.330;2023-04-03T01:34:04;2.20;99.90
6696;DHT22;3385;48.928;10.330;2023-04-03T01:36:31;2.00;99.90
6696;DHT22;3385;48.928;10.330;2023-04-03T01:38:58;2.20;99.90
6696;DHT22;3385;48.928;10.330;2023-04-03T01:41:25;2.00;99.90
6696;DHT22;3385;48.928;10.330;2023-04-03T01:43:51;2.20;99.90
6696;DHT22;3385;48.928;10.330;2023-04-03T01:46:18;2.20;99.90
6696;DHT22;3385;48.928;10.330;2023-04-03T01:48:45;2.10;99.90
6696;DHT22;3385;48.928;10.330;2023-04-03T01:51:10;2.10;99.90
6696;DHT22;3385;48.928;10.330;2023-04-03T01:53:36;2.20;99.90
6696;DHT22;3385;48.928;10.330;2023-04-03T01:56:02;2.10;99.90
6696;DHT22;3385;48.928;10.330;2023-04-03T01:58:28;2.20;99.90
6696;DHT22;3385;48.928;10.330;2023-04-03T02:00:54;1.90;99.90
6696;DHT22;3385;48.928;10.330;2023-04-03T02:03:20;1.90;99.90
6696;DHT22;3385;48.928;10.330;2023-04-03T02:05:46;2.00;99.90
6696;DHT22;3385;48.928;10.330;2023-04-03T02:08:11;1.90;99.90
6696;DHT22;3385;48.928;10.330;2023-04-03T02:10:38;2.10;99.90
6696;DHT22;3385;48.928;10.330;2023-04-03T02:13:04;1.80;99.90
6696;DHT22;3385;48.928;10.330;2023-04-03T02:15:30;2.00;99.90
6696;DHT22;3385;48.928;10.330;2023-04-03T02:17:56;-0.10;99.90
6696;DHT22;3385;48.928;10.330;2023-04-03T02:20:22;2.10;99.90
6696;DHT22;3385;48.928;10.330;2023-04-03T02:22:47;1.90;99.90
6696;DHT22;3385;48.928;10.330;2023-04-03T02:25:13;2.10;99.90
6696;DHT22;3385;48.928;10.330;2023-04-03T02:27:39;2.00;99.90
6696;DHT22;3385;48.928;10.330;2023-04-03T02:30:06;2.10;99.90
6696;DHT22;3385;48.928;10.330;2023-04-03T02:32:32;1.80;99.90
6696;DHT22;3385;48.928;10.330;2023-04-03T02:34:58;1.80;99.90
6696;DHT22;3385;48.928;10.330;2023-04-03T02:37:24;1.70;99.90
6696;DHT22;3385;48.928;10.330;2023-04-03T02:39:50;1.90;99.90
6696;DHT22;3385;48.928;10.330;2023-04-03T02:42:15;2.10;99.90
6696;DHT22;3385;48.928;10.330;2023-04-03T02:44:41;1.70;99.90
6696;DHT22;3385;48.928;10.330;2023-04-03T02:47:07;1.80;99.90
6696;DHT22;3385;48.928;10.330;2023-04-03T02:49:33;1.70;99.90
6696;DHT22;3385;48.928;10.330;2023-04-03T02:51:58;1.70;99.90
6696;DHT22;3385;48.928;10.330;2023-04-03T02:54:24;1.90;99.90
6696;DHT22;3385;48.928;10.330;2023-04-03T02:56:54;1.70;99.90
6696;DHT22;3385;48.928;10.330;2023-04-03T02:59:20;1.80;99.90
6696;DHT22;3385;48.928;10.330;2023-04-03T03:01:46;1.80;99.90
6696;DHT22;3385;48.928;10.330;2023-04-03T03:04:12;1.80;99.90
6696;DHT22;3385;48.928;10.330;2023-04-03T03:06:37;1.90;99.90
6696;DHT22;3385;48.928;10.330;2023-04-03T03:09:04;2.00;99.90
6696;DHT22;3385;48.928;10.330;2023-04-03T03:11:31;1.90;99.90
6696;DHT22;3385;48.928;10.330;2023-04-03T03:13:57;1.80;99.90
6696;DHT22;3385;48.928;10.330;2023-04-03T03:16:23;1.60;99.90
6696;DHT22;3385;48.928;10.330;2023-04-03T03:18:48;5.70;99.90
6696;DHT22;3385;48.928;10.330;2023-04-03T03:21:14;1.70;99.90
6696;DHT22;3385;48.928;10.330;2023-04-03T03:23:40;1.60;99.90
6696;DHT22;3385;48.928;10.330;2023-04-03T03:26:08;1.80;99.90
6696;DHT22;3385;48.928;10.330;2023-04-03T03:28:35;1.60;99.90
6696;DHT22;3385;48.928;10.330;2023-04-03T03:31:02;1.90;99.90
6696;DHT22;3385;48.928;10.330;2023-04-03T03:33:28;1.80;99.90
6696;DHT22;3385;48.928;10.330;2023-04-03T03:35:53;1.70;99.90
6696;DHT22;3385;48.928;10.330;2023-04-03T03:38:20;1.80;99.90
6696;DHT22;3385;48.928;10.330;2023-04-03T03:40:50;1.40;99.90
6696;DHT22;3385;48.928;10.330;2023-04-03T03:43:16;1.40;99.90
6696;DHT22;3385;48.928;10.330;2023-04-03T03:45:42;1.40;99.90
6696;DHT22;3385;48.928;10.330;2023-04-03T03:48:08;1.10;99.90
6696;DHT22;3385;48.928;10.330;2023-04-03T03:50:34;1.00;99.90
6696;DHT22;3385;48.928;10.330;2023-04-03T03:52:59;1.00;99.90
6696;DHT22;3385;48.928;10.330;2023-04-03T03:55:25;1.20;99.90
6696;DHT22;3385;48.928;10.330;2023-04-03T03:57:51;1.20;99.90
6696;DHT22;3385;48.928;10.330;2023-04-03T04:00:17;1.30;99.90
6696;DHT22;3385;48.928;10.330;2023-04-03T04:02:43;1.20;99.90
6696;DHT22;3385;48.928;10.330;2023-04-03T04:05:09;1.20;99.90
6696;DHT22;3385;48.928;10.330;2023-04-03T04:07:35;1.70;99.90
6696;DHT22;3385;48.928;10.330;2023-04-03T04:10:01;1.10;99.90
6696;DHT22;3385;48.928;10.330;2023-04-03T04:12:27;1.50;99.90
6696;DHT22;3385;48.928;10.330;2023-04-03T04:14:52;1.40;99.90
6696;DHT22;3385;48.928;10.330;2023-04-03T04:17:18;1.60;99.90
6696;DHT22;3385;48.928;10.330;2023-04-03T04:19:44;1.50;99.90
6696;DHT22;3385;48.928;10.330;2023-04-03T04:22:10;1.80;99.90
6696;DHT22;3385;48.928;10.330;2023-04-03T04:24:35;1.40;99.90
6696;DHT22;3385;48.928;10.330;2023-04-03T04:27:01;1.50;99.90
6696;DHT22;3385;48.928;10.330;2023-04-03T04:29:27;1.30;99.90
6696;DHT22;3385;48.928;10.330;2023-04-03T04:31:52;1.50;99.90
6696;DHT22;3385;48.928;10.330;2023-04-03T04:34:18;1.40;99.90
6696;DHT22;3385;48.928;10.330;2023-04-03T04:36:44;1.30;99.90
6696;DHT22;3385;48.928;10.330;2023-04-03T04:39:10;1.50;99.90
6696;DHT22;3385;48.928;10.330;2023-04-03T04:41:35;1.50;99.90
6696;DHT22;3385;48.928;10.330;2023-04-03T04:44:01;1.30;99.90
6696;DHT22;3385;48.928;10.330;2023-04-03T04:46:27;1.30;99.90
6696;DHT22;3385;48.928;10.330;2023-04-03T04:48:53;1.50;99.90
6696;DHT22;3385;48.928;10.330;2023-04-03T04:51:19;1.50;99.90
6696;DHT22;3385;48.928;10.330;2023-04-03T04:53:45;1.30;99.90
6696;DHT22;3385;48.928;10.330;2023-04-03T04:56:11;1.40;99.90
6696;DHT22;3385;48.928;10.330;2023-04-03T04:58:37;1.10;99.90
6696;DHT22;3385;48.928;10.330;2023-04-03T05:01:04;1.60;99.90
6696;DHT22;3385;48.928;10.330;2023-04-03T05:03:31;1.10;99.90
6696;DHT22;3385;48.928;10.330;2023-04-03T05:05:57;1.20;99.90
6696;DHT22;3385;48.928;10.330;2023-04-03T05:08:23;0.90;99.90
6696;DHT22;3385;48.928;10.330;2023-04-03T05:10:49;1.40;99.90
6696;DHT22;3385;48.928;10.330;2023-04-03T05:13:15;1.50;99.90
6696;DHT22;3385;48.928;10.330;2023-04-03T05:15:40;1.30;99.90
6696;DHT22;3385;48.928;10.330;2023-04-03T05:18:06;1.50;99.90
6696;DHT22;3385;48.928;10.330;2023-04-03T05:20:33;1.50;99.90
6696;DHT22;3385;48.928;10.330;2023-04-03T05:22:59;1.50;99.90
6696;DHT22;3385;48.928;10.330;2023-04-03T05:25:25;1.50;99.90
6696;DHT22;3385;48.928;10.330;2023-04-03T05:27:51;1.40;99.90
6696;DHT22;3385;48.928;10.330;2023-04-03T05:30:17;1.40;99.90
6696;DHT22;3385;48.928;10.330;2023-04-03T05:32:42;1.40;99.90
6696;DHT22;3385;48.928;10.330;2023-04-03T05:35:08;1.70;99.90
6696;DHT22;3385;48.928;10.330;2023-04-03T05:37:35;1.70;99.90
6696;DHT22;3385;48.928;10.330;2023-04-03T05:40:01;1.70;99.90
6696;DHT22;3385;48.928;10.330;2023-04-03T05:42:26;1.70;99.90
6696;DHT22;3385;48.928;10.330;2023-04-03T05:44:52;1.40;99.90
6696;DHT22;3385;48.928;10.330;2023-04-03T05:47:19;1.70;99.90
6696;DHT22;3385;48.928;10.330;2023-04-03T05:49:45;1.60;99.90
6696;DHT22;3385;48.928;10.330;2023-04-03T05:52:21;1.60;99.90
6696;DHT22;3385;48.928;10.330;2023-04-03T05:54:48;1.40;99.90
6696;DHT22;3385;48.928;10.330;2023-04-03T05:57:17;1.70;99.90
6696;DHT22;3385;48.928;10.330;2023-04-03T05:59:45;1.50;99.90
6696;DHT22;3385;48.928;10.330;2023-04-03T06:02:18;1.50;99.90
6696;DHT22;3385;48.928;10.330;2023-04-03T06:04:44;1.80;99.90
6696;DHT22;3385;48.928;10.330;2023-04-03T06:07:16;1.50;99.90
6696;DHT22;3385;48.928;10.330;2023-04-03T06:09:43;1.70;99.90
6696;DHT22;3385;48.928;10.330;2023-04-03T06:12:09;1.80;99.90
6696;DHT22;3385;48.928;10.330;2023-04-03T06:14:35;1.70;99.90
6696;DHT22;3385;48.928;10.330;2023-04-03T06:17:01;1.60;99.90
6696;DHT22;3385;48.928;10.330;2023-04-03T06:19:27;1.60;99.90
6696;DHT22;3385;48.928;10.330;2023-04-03T06:21:53;1.90;99.90
6696;DHT22;3385;48.928;10.330;2023-04-03T06:24:19;2.10;99.90
6696;DHT22;3385;48.928;10.330;2023-04-03T06:26:47;1.80;99.90
6696;DHT22;3385;48.928;10.330;2023-04-03T06:29:13;2.00;99.90
6696;DHT22;3385;48.928;10.330;2023-04-03T06:31:39;2.00;99.90
6696;DHT22;3385;48.928;10.330;2023-04-03T06:34:05;2.30;99.90
6696;DHT22;3385;48.928;10.330;2023-04-03T06:36:32;2.00;99.90
6696;DHT22;3385;48.928;10.330;2023-04-03T06:38:58;2.30;99.90
6696;DHT22;3385;48.928;10.330;2023-04-03T06:41:24;2.40;99.90
6696;DHT22;3385;48.928;10.330;2023-04-03T06:43:51;2.20;99.90
6696;DHT22;3385;48.928;10.330;2023-04-03T06:46:20;2.50;99.90
6696;DHT22;3385;48.928;10.330;2023-04-03T06:48:46;2.50;99.90
6696;DHT22;3385;48.928;10.330;2023-04-03T06:51:23;2.70;99.90
6696;DHT22;3385;48.928;10.330;2023-04-03T06:53:51;2.60;99.90
6696;DHT22;3385;48.928;10.330;2023-04-03T06:56:17;2.40;99.90
6696;DHT22;3385;48.928;10.330;2023-04-03T06:58:43;2.60;99.90
6696;DHT22;3385;48.928;10.330;2023-04-03T07:01:11;2.50;99.90
6696;DHT22;3385;48.928;10.330;2023-04-03T07:03:38;2.40;99.90
6696;DHT22;3385;48.928;10.330;2023-04-03T07:06:05;2.70;99.90
6696;DHT22;3385;48.928;10.330;2023-04-03T07:08:33;2.70;99.90
6696;DHT22;3385;48.928;10.330;2023-04-03T07:11:00;2.90;99.90
6696;DHT22;3385;48.928;10.330;2023-04-03T07:13:25;2.70;99.90
6696;DHT22;3385;48.928;10.330;2023-04-03T07:15:52;3.00;99.90
6696;DHT22;3385;48.928;10.330;2023-04-03T07:18:18;3.20;99.90
6696;DHT22;3385;48.928;10.330;2023-04-03T07:20:43;3.30;99.90
6696;DHT22;3385;48.928;10.330;2023-04-03T07:23:09;3.30;99.90
6696;DHT22;3385;48.928;10.330;2023-04-03T07:25:36;3.50;99.90
6696;DHT22;3385;48.928;10.330;2023-04-03T07:28:03;1.40;99.90
6696;DHT22;3385;48.928;10.330;2023-04-03T07:30:29;3.60;99.90
6696;DHT22;3385;48.928;10.330;2023-04-03T07:32:55;3.50;99.90
6696;DHT22;3385;48.928;10.330;2023-04-03T07:35:20;3.70;99.90
6696;DHT22;3385;48.928;10.330;2023-04-03T07:37:46;3.90;99.90
6696;DHT22;3385;48.928;10.330;2023-04-03T07:40:12;3.90;99.90
6696;DHT22;3385;48.928;10.330;2023-04-03T07:42:38;4.20;99.90
6696;DHT22;3385;48.928;10.330;2023-04-03T07:45:04;3.80;99.90
6696;DHT22;3385;48.928;10.330;2023-04-03T07:47:30;3.90;99.90
6696;DHT22;3385;48.928;10.330;2023-04-03T07:49:57;4.10;99.90
6696;DHT22;3385;48.928;10.330;2023-04-03T07:52:23;4.20;99.90
6696;DHT22;3385;48.928;10.330;2023-04-03T07:54:49;4.10;99.90
6696;DHT22;3385;48.928;10.330;2023-04-03T07:57:15;4.20;99.90
6696;DHT22;3385;48.928;10.330;2023-04-03T07:59:42;4.30;99.90
6696;DHT22;3385;48.928;10.330;2023-04-03T08:02:11;4.40;99.90
6696;DHT22;3385;48.928;10.330;2023-04-03T08:04:37;4.30;99.90
6696;DHT22;3385;48.928;10.330;2023-04-03T08:07:04;4.20;99.90
6696;DHT22;3385;48.928;10.330;2023-04-03T08:09:29;4.50;99.90
6696;DHT22;3385;48.928;10.330;2023-04-03T08:11:55;4.40;99.90
6696;DHT22;3385;48.928;10.330;2023-04-03T08:14:21;4.30;99.90
6696;DHT22;3385;48.928;10.330;2023-04-03T08:16:47;4.30;99.90
6696;DHT22;3385;48.928;10.330;2023-04-03T08:19:14;4.40;99.90
6696;DHT22;3385;48.928;10.330;2023-04-03T08:21:42;4.40;99.90
6696;DHT22;3385;48.928;10.330;2023-04-03T08:24:08;4.70;99.90
6696;DHT22;3385;48.928;10.330;2023-04-03T08:26:34;4.70;99.90
6696;DHT22;3385;48.928;10.330;2023-04-03T08:29:00;4.60;99.90
6696;DHT22;3385;48.928;10.330;2023-04-03T08:31:26;4.70;99.90
6696;DHT22;3385;48.928;10.330;2023-04-03T08:33:53;4.50;99.90
6696;DHT22;3385;48.928;10.330;2023-04-03T08:36:21;4.40;99.90
6696;DHT22;3385;48.928;10.330;2023-04-03T08:38:48;4.50;99.90
6696;DHT22;3385;48.928;10.330;2023-04-03T08:43:53;4.80;99.90
6696;DHT22;3385;48.928;10.330;2023-04-03T08:46:26;4.90;99.90
6696;DHT22;3385;48.928;10.330;2023-04-03T08:48:58;4.90;99.90
6696;DHT22;3385;48.928;10.330;2023-04-03T08:51:26;5.10;99.90
6696;DHT22;3385;48.928;10.330;2023-04-03T08:54:03;5.50;99.90
6696;DHT22;3385;48.928;10.330;2023-04-03T08:56:31;5.30;99.90
6696;DHT22;3385;48.928;10.330;2023-04-03T08:59:05;5.50;99.90
6696;DHT22;3385;48.928;10.330;2023-04-03T09:01:39;5.50;99.90
6696;DHT22;3385;48.928;10.330;2023-04-03T09:04:14;5.50;99.90
6696;DHT22;3385;48.928;10.330;2023-04-03T09:06:43;5.40;99.90
6696;DHT22;3385;48.928;10.330;2023-04-03T09:09:15;5.50;99.90
6696;DHT22;3385;48.928;10.330;2023-04-03T09:11:56;5.70;99.90
6696;DHT22;3385;48.928;10.330;2023-04-03T09:15:07;5.90;99.90
6696;DHT22;3385;48.928;10.330;2023-04-03T09:23:21;5.80;99.90
6696;DHT22;3385;48.928;10.330;2023-04-03T09:25:49;5.80;99.90
6696;DHT22;3385;48.928;10.330;2023-04-03T09:28:15;6.00;99.90
6696;DHT22;3385;48.928;10.330;2023-04-03T09:30:41;6.30;99.90
6696;DHT22;3385;48.928;10.330;2023-04-03T09:33:07;6.10;99.90
6696;DHT22;3385;48.928;10.330;2023-04-03T09:35:36;6.30;99.90
6696;DHT22;3385;48.928;10.330;2023-04-03T09:38:17;6.30;99.90
6696;DHT22;3385;48.928;10.330;2023-04-03T09:40:44;6.20;99.90
6696;DHT22;3385;48.928;10.330;2023-04-03T09:43:28;6.30;99.90
6696;DHT22;3385;48.928;10.330;2023-04-03T09:45:55;6.30;99.90
6696;DHT22;3385;48.928;10.330;2023-04-03T09:48:25;6.00;99.90
6696;DHT22;3385;48.928;10.330;2023-04-03T09:53:38;6.80;99.90
6696;DHT22;3385;48.928;10.330;2023-04-03T09:58:45;6.70;99.90
6696;DHT22;3385;48.928;10.330;2023-04-03T10:01:41;6.60;99.90
6696;DHT22;3385;48.928;10.330;2023-04-03T10:04:18;6.50;99.90
6696;DHT22;3385;48.928;10.330;2023-04-03T10:06:49;6.80;99.90
6696;DHT22;3385;48.928;10.330;2023-04-03T10:09:29;6.40;99.90
6696;DHT22;3385;48.928;10.330;2023-04-03T10:14:30;6.60;99.90
6696;DHT22;3385;48.928;10.330;2023-04-03T10:20:27;6.10;99.90
6696;DHT22;3385;48.928;10.330;2023-04-03T10:26:02;5.90;99.90
6696;DHT22;3385;48.928;10.330;2023-04-03T10:31:21;6.00;99.90
6696;DHT22;3385;48.928;10.330;2023-04-03T10:36:55;6.10;99.90
6696;DHT22;3385;48.928;10.330;2023-04-03T10:39:53;5.90;99.90
6696;DHT22;3385;48.928;10.330;2023-04-03T10:45:21;5.70;99.90
6696;DHT22;3385;48.928;10.330;2023-04-03T10:48:18;5.70;99.90
6696;DHT22;3385;48.928;10.330;2023-04-03T10:54:11;5.80;99.90
6696;DHT22;3385;48.928;10.330;2023-04-03T10:56:40;5.80;99.90
6696;DHT22;3385;48.928;10.330;2023-04-03T10:59:15;5.50;99.90
6696;DHT22;3385;48.928;10.330;2023-04-03T11:01:48;5.00;99.90
6696;DHT22;3385;48.928;10.330;2023-04-03T11:04:16;5.10;99.90
6696;DHT22;3385;48.928;10.330;2023-04-03T11:06:49;4.90;99.90
6696;DHT22;3385;48.928;10.330;2023-04-03T11:09:50;7.40;99.90
6696;DHT22;3385;48.928;10.330;2023-04-03T11:12:29;4.70;99.90
6696;DHT22;3385;48.928;10.330;2023-04-03T11:14:58;5.20;99.90
6696;DHT22;3385;48.928;10.330;2023-04-03T11:17:39;4.90;99.90
6696;DHT22;3385;48.928;10.330;2023-04-03T11:23:42;5.40;99.90
6696;DHT22;3385;48.928;10.330;2023-04-03T11:25:43;4.90;99.90
6696;DHT22;3385;48.928;10.330;2023-04-03T11:28:13;5.00;99.90
6696;DHT22;3385;48.928;10.330;2023-04-03T11:36:32;6.00;99.90
6696;DHT22;3385;48.928;10.330;2023-04-03T11:39:07;6.40;99.90
6696;DHT22;3385;48.928;10.330;2023-04-03T11:41:35;7.30;99.90
6696;DHT22;3385;48.928;10.330;2023-04-03T11:44:13;7.20;99.90
6696;DHT22;3385;48.928;10.330;2023-04-03T11:46:52;7.10;99.90
6696;DHT22;3385;48.928;10.330;2023-04-03T11:49:57;6.70;99.90
6696;DHT22;3385;48.928;10.330;2023-04-03T11:58:24;6.80;99.90
6696;DHT22;3385;48.928;10.330;2023-04-03T12:00:56;6.60;99.90
6696;DHT22;3385;48.928;10.330;2023-04-03T12:05:52;6.30;99.90
6696;DHT22;3385;48.928;10.330;2023-04-03T12:08:29;6.40;99.90
6696;DHT22;3385;48.928;10.330;2023-04-03T12:16:27;7.70;99.90
6696;DHT22;3385;48.928;10.330;2023-04-03T12:29:23;5.60;99.90
6696;DHT22;3385;48.928;10.330;2023-04-03T12:46:24;6.10;99.90
6696;DHT22;3385;48.928;10.330;2023-04-03T12:48:54;6.30;99.90
6696;DHT22;3385;48.928;10.330;2023-04-03T12:56:38;6.70;99.90
6696;DHT22;3385;48.928;10.330;2023-04-03T13:01:43;7.40;99.90
6696;DHT22;3385;48.928;10.330;2023-04-03T13:04:11;7.50;99.90
6696;DHT22;3385;48.928;10.330;2023-04-03T13:06:42;7.90;99.90
6696;DHT22;3385;48.928;10.330;2023-04-03T13:09:25;7.60;99.90
6696;DHT22;3385;48.928;10.330;2023-04-03T13:12:03;9.30;99.90
6696;DHT22;3385;48.928;10.330;2023-04-03T13:14:34;12.20;99.90
6696;DHT22;3385;48.928;10.330;2023-04-03T13:17:12;13.60;99.90
6696;DHT22;3385;48.928;10.330;2023-04-03T13:19:40;14.10;99.90
6696;DHT22;3385;48.928;10.330;2023-04-03T13:25:00;14.30;99.90
6696;DHT22;3385;48.928;10.330;2023-04-03T13:27:30;12.10;99.90
6696;DHT22;3385;48.928;10.330;2023-04-03T13:29:57;11.70;99.90
6696;DHT22;3385;48.928;10.330;2023-04-03T13:32:27;10.80;99.90
6696;DHT22;3385;48.928;10.330;2023-04-03T13:34:54;10.10;99.90
6696;DHT22;3385;48.928;10.330;2023-04-03T13:37:32;9.50;99.90
6696;DHT22;3385;48.928;10.330;2023-04-03T13:42:29;13.00;99.90
6696;DHT22;3385;48.928;10.330;2023-04-03T13:45:18;14.50;99.90
6696;DHT22;3385;48.928;10.330;2023-04-03T13:47:47;14.90;99.90
6696;DHT22;3385;48.928;10.330;2023-04-03T13:50:23;13.50;99.90
6696;DHT22;3385;48.928;10.330;2023-04-03T13:53:24;10.60;99.90
6696;DHT22;3385;48.928;10.330;2023-04-03T13:56:08;10.40;99.90
6696;DHT22;3385;48.928;10.330;2023-04-03T13:58:37;8.90;99.90
6696;DHT22;3385;48.928;10.330;2023-04-03T14:01:19;8.60;99.90
6696;DHT22;3385;48.928;10.330;2023-04-03T14:04:00;8.60;99.90
6696;DHT22;3385;48.928;10.330;2023-04-03T14:06:27;8.50;99.90
6696;DHT22;3385;48.928;10.330;2023-04-03T14:08:52;8.00;99.90
6696;DHT22;3385;48.928;10.330;2023-04-03T14:11:24;8.70;99.90
6696;DHT22;3385;48.928;10.330;2023-04-03T14:13:53;10.80;99.90
6696;DHT22;3385;48.928;10.330;2023-04-03T14:16:21;12.60;99.90
6696;DHT22;3385;48.928;10.330;2023-04-03T14:18:49;16.50;99.90
6696;DHT22;3385;48.928;10.330;2023-04-03T14:21:17;13.50;99.90
6696;DHT22;3385;48.928;10.330;2023-04-03T14:23:43;11.50;99.90
6696;DHT22;3385;48.928;10.330;2023-04-03T14:26:18;9.40;99.90
6696;DHT22;3385;48.928;10.330;2023-04-03T14:28:47;8.30;99.90
6696;DHT22;3385;48.928;10.330;2023-04-03T14:31:15;7.80;99.90
6696;DHT22;3385;48.928;10.330;2023-04-03T14:33:41;7.20;99.90
6696;DHT22;3385;48.928;10.330;2023-04-03T14:36:15;7.20;99.90
6696;DHT22;3385;48.928;10.330;2023-04-03T14:38:43;8.80;99.90
6696;DHT22;3385;48.928;10.330;2023-04-03T14:41:12;11.90;99.90
6696;DHT22;3385;48.928;10.330;2023-04-03T14:43:38;14.50;99.90
6696;DHT22;3385;48.928;10.330;2023-04-03T14:46:17;15.60;99.90
6696;DHT22;3385;48.928;10.330;2023-04-03T14:48:44;17.50;99.90
6696;DHT22;3385;48.928;10.330;2023-04-03T14:51:14;17.00;99.90
6696;DHT22;3385;48.928;10.330;2023-04-03T14:53:42;12.70;99.90
6696;DHT22;3385;48.928;10.330;2023-04-03T14:56:17;10.70;99.90
6696;DHT22;3385;48.928;10.330;2023-04-03T14:58:44;8.70;99.90
6696;DHT22;3385;48.928;10.330;2023-04-03T15:01:11;8.10;99.90
6696;DHT22;3385;48.928;10.330;2023-04-03T15:03:37;7.80;99.90
6696;DHT22;3385;48.928;10.330;2023-04-03T15:06:03;6.90;99.90
6696;DHT22;3385;48.928;10.330;2023-04-03T15:08:29;7.00;99.90
6696;DHT22;3385;48.928;10.330;2023-04-03T15:10:56;6.70;99.90
6696;DHT22;3385;48.928;10.330;2023-04-03T15:13:23;6.70;99.90
6696;DHT22;3385;48.928;10.330;2023-04-03T15:15:49;6.70;99.90
6696;DHT22;3385;48.928;10.330;2023-04-03T15:18:21;6.40;99.90
6696;DHT22;3385;48.928;10.330;2023-04-03T15:20:48;6.70;99.90
6696;DHT22;3385;48.928;10.330;2023-04-03T15:23:15;6.80;99.90
6696;DHT22;3385;48.928;10.330;2023-04-03T15:25:45;9.00;99.90
6696;DHT22;3385;48.928;10.330;2023-04-03T15:28:28;12.20;99.90
6696;DHT22;3385;48.928;10.330;2023-04-03T15:30:55;14.10;99.90
6696;DHT22;3385;48.928;10.330;2023-04-03T15:33:22;14.40;99.90
6696;DHT22;3385;48.928;10.330;2023-04-03T15:35:48;13.60;99.90
6696;DHT22;3385;48.928;10.330;2023-04-03T15:38:14;11.60;99.90
6696;DHT22;3385;48.928;10.330;2023-04-03T15:40:40;10.30;99.90
6696;DHT22;3385;48.928;10.330;2023-04-03T15:43:06;9.50;99.90
6696;DHT22;3385;48.928;10.330;2023-04-03T15:45:34;8.80;99.90
6696;DHT22;3385;48.928;10.330;2023-04-03T15:48:01;7.30;99.90
6696;DHT22;3385;48.928;10.330;2023-04-03T15:50:27;7.10;99.90
6696;DHT22;3385;48.928;10.330;2023-04-03T15:52:53;6.50;99.90
6696;DHT22;3385;48.928;10.330;2023-04-03T15:55:25;6.40;99.90
6696;DHT22;3385;48.928;10.330;2023-04-03T15:57:51;6.10;99.90
6696;DHT22;3385;48.928;10.330;2023-04-03T16:00:17;6.00;99.90
6696;DHT22;3385;48.928;10.330;2023-04-03T16:02:45;6.30;99.90
6696;DHT22;3385;48.928;10.330;2023-04-03T16:05:13;6.30;99.90
6696;DHT22;3385;48.928;10.330;2023-04-03T16:07:41;6.60;99.90
6696;DHT22;3385;48.928;10.330;2023-04-03T16:10:08;8.10;99.90
6696;DHT22;3385;48.928;10.330;2023-04-03T16:12:34;8.40;99.90
6696;DHT22;3385;48.928;10.330;2023-04-03T16:15:00;8.20;99.90
6696;DHT22;3385;48.928;10.330;2023-04-03T16:17:27;8.70;99.90
6696;DHT22;3385;48.928;10.330;2023-04-03T16:19:54;8.70;99.90
6696;DHT22;3385;48.928;10.330;2023-04-03T16:22:21;8.10;99.90
6696;DHT22;3385;48.928;10.330;2023-04-03T16:24:49;7.30;99.90
6696;DHT22;3385;48.928;10.330;2023-04-03T16:27:15;6.60;99.90
6696;DHT22;3385;48.928;10.330;2023-04-03T16:29:41;6.30;99.90
6696;DHT22;3385;48.928;10.330;2023-04-03T16:32:07;6.10;99.90
6696;DHT22;3385;48.928;10.330;2023-04-03T16:34:33;5.90;99.90
6696;DHT22;3385;48.928;10.330;2023-04-03T16:36:59;5.70;99.90
6696;DHT22;3385;48.928;10.330;2023-04-03T16:39:24;5.60;99.90
6696;DHT22;3385;48.928;10.330;2023-04-03T16:41:50;5.30;99.90
6696;DHT22;3385;48.928;10.330;2023-04-03T16:44:16;5.20;99.90
6696;DHT22;3385;48.928;10.330;2023-04-03T16:46:42;5.30;99.90
6696;DHT22;3385;48.928;10.330;2023-04-03T16:49:08;5.30;99.90
6696;DHT22;3385;48.928;10.330;2023-04-03T16:51:33;5.10;99.90
6696;DHT22;3385;48.928;10.330;2023-04-03T16:53:59;5.30;99.90
6696;DHT22;3385;48.928;10.330;2023-04-03T16:56:25;5.00;99.90
6696;DHT22;3385;48.928;10.330;2023-04-03T16:58:52;5.10;99.90
6696;DHT22;3385;48.928;10.330;2023-04-03T17:01:20;4.90;99.90
6696;DHT22;3385;48.928;10.330;2023-04-03T17:03:47;5.00;99.90
6696;DHT22;3385;48.928;10.330;2023-04-03T17:06:20;4.90;99.90
6696;DHT22;3385;48.928;10.330;2023-04-03T17:08:48;4.90;99.90
6696;DHT22;3385;48.928;10.330;2023-04-03T17:11:14;4.90;99.90
6696;DHT22;3385;48.928;10.330;2023-04-03T17:13:41;4.90;99.90
6696;DHT22;3385;48.928;10.330;2023-04-03T17:16:09;4.10;99.90
6696;DHT22;3385;48.928;10.330;2023-04-03T17:18:36;4.70;99.90
6696;DHT22;3385;48.928;10.330;2023-04-03T17:21:03;4.90;99.90
6696;DHT22;3385;48.928;10.330;2023-04-03T17:23:30;4.80;99.90
6696;DHT22;3385;48.928;10.330;2023-04-03T17:25:56;4.60;99.90
6696;DHT22;3385;48.928;10.330;2023-04-03T17:28:22;4.70;99.90
6696;DHT22;3385;48.928;10.330;2023-04-03T17:30:54;4.60;99.90
6696;DHT22;3385;48.928;10.330;2023-04-03T17:33:20;4.30;99.90
6696;DHT22;3385;48.928;10.330;2023-04-03T17:35:46;4.40;99.90
6696;DHT22;3385;48.928;10.330;2023-04-03T17:44:03;4.30;99.90
6696;DHT22;3385;48.928;10.330;2023-04-03T17:46:30;4.00;99.90
6696;DHT22;3385;48.928;10.330;2023-04-03T17:48:57;4.20;99.90
6696;DHT22;3385;48.928;10.330;2023-04-03T17:51:24;4.10;99.90